sensor_id;sensor_type;location;lat;lon;timestamp;temperature;humidity
55701;DHT22;41604;43.142;20.512;2022-07-23T00:02:25;615.00;1792.00
55701;DHT22;41604;43.142;20.512;2022-07-23T00:04:51;615.00;1792.00
55701;DHT22;41604;43.142;20.512;2022-07-23T00:07:17;615.00;1792.00
55701;DHT22;41604;43.142;20.512;2022-07-23T00:09:43;615.00;1792.00
55701;DHT22;41604;43.142;20.512;2022-07-23T00:21:55;615.00;1792.00
55701;DHT22;41604;43.142;20.512;2022-07-23T00:24:21;614.90;1792.00
55701;DHT22;41604;43.142;20.512;2022-07-23T00:26:47;614.90;1792.00
55701;DHT22;41604;43.142;20.512;2022-07-23T00:29:13;614.80;1792.00
55701;DHT22;41604;43.142;20.512;2022-07-23T00:31:38;614.80;1792.00
55701;DHT22;41604;43.142;20.512;2022-07-23T00:34:05;614.80;1792.00
55701;DHT22;41604;43.142;20.512;2022-07-23T00:36:31;614.80;1792.00
55701;DHT22;41604;43.142;20.512;2022-07-23T00:38:57;614.80;1817.60
55701;DHT22;41604;43.142;20.512;2022-07-23T00:41:23;614.60;1817.60
55701;DHT22;41604;43.142;20.512;2022-07-23T00:43:49;614.60;1817.60
55701;DHT22;41604;43.142;20.512;2022-07-23T00:46:22;614.50;1817.60
55701;DHT22;41604;43.142;20.512;2022-07-23T00:48:48;589.70;1843.20
55701;DHT22;41604;43.142;20.512;2022-07-23T00:51:15;589.60;1843.20
55701;DHT22;41604;43.142;20.512;2022-07-23T00:53:42;589.60;1868.80
55701;DHT22;41604;43.142;20.512;2022-07-23T00:56:08;589.60;1868.80
55701;DHT22;41604;43.142;20.512;2022-07-23T00:58:36;589.70;1843.20
55701;DHT22;41604;43.142;20.512;2022-07-23T01:01:02;589.70;1843.20
55701;DHT22;41604;43.142;20.512;2022-07-23T01:03:28;589.70;1843.20
55701;DHT22;41604;43.142;20.512;2022-07-23T01:05:54;589.70;1843.20
55701;DHT22;41604;43.142;20.512;2022-07-23T01:08:20;589.70;1843.20
55701;DHT22;41604;43.142;20.512;2022-07-23T01:10:48;589.70;1843.20
55701;DHT22;41604;43.142;20.512;2022-07-23T01:13:16;589.70;1843.20
55701;DHT22;41604;43.142;20.512;2022-07-23T01:15:42;589.70;1843.20
55701;DHT22;41604;43.142;20.512;2022-07-23T01:18:08;589.70;1843.20
55701;DHT22;41604;43.142;20.512;2022-07-23T01:20:35;589.70;1843.20
55701;DHT22;41604;43.142;20.512;2022-07-23T01:23:01;589.70;1843.20
55701;DHT22;41604;43.142;20.512;2022-07-23T01:25:27;589.70;1843.20
55701;DHT22;41604;43.142;20.512;2022-07-23T01:27:53;589.60;1843.20
55701;DHT22;41604;43.142;20.512;2022-07-23T01:30:20;589.60;1843.20
55701;DHT22;41604;43.142;20.512;2022-07-23T01:32:46;589.60;1843.20
55701;DHT22;41604;43.142;20.512;2022-07-23T01:35:12;589.50;1843.20
55701;DHT22;41604;43.142;20.512;2022-07-23T01:37:39;589.50;1868.80
55701;DHT22;41604;43.142;20.512;2022-07-23T01:40:05;589.50;1843.20
55701;DHT22;41604;43.142;20.512;2022-07-23T01:42:31;589.30;1868.80
55701;DHT22;41604;43.142;20.512;2022-07-23T01:44:58;589.00;1894.40
55701;DHT22;41604;43.142;20.512;2022-07-23T01:47:24;588.80;1920.00
55701;DHT22;41604;43.142;20.512;2022-07-23T01:49:51;563.90;1945.60
55701;DHT22;41604;43.142;20.512;2022-07-23T01:52:17;563.70;1945.60
55701;DHT22;41604;43.142;20.512;2022-07-23T01:54:43;563.50;1971.20
55701;DHT22;41604;43.142;20.512;2022-07-23T01:57:09;563.30;1996.80
55701;DHT22;41604;43.142;20.512;2022-07-23T01:59:35;563.30;1996.80
55701;DHT22;41604;43.142;20.512;2022-07-23T02:02:02;563.40;1996.80
55701;DHT22;41604;43.142;20.512;2022-07-23T02:04:29;563.50;1971.20
55701;DHT22;41604;43.142;20.512;2022-07-23T02:06:55;563.20;1996.80
55701;DHT22;41604;43.142;20.512;2022-07-23T02:09:21;538.50;1971.20
55701;DHT22;41604;43.142;20.512;2022-07-23T02:11:48;563.30;1996.80
55701;DHT22;41604;43.142;20.512;2022-07-23T02:14:14;563.20;1996.80
55701;DHT22;41604;43.142;20.512;2022-07-23T02:16:40;563.20;1996.80
55701;DHT22;41604;43.142;20.512;2022-07-23T02:19:06;563.30;1996.80
55701;DHT22;41604;43.142;20.512;2022-07-23T02:21:32;563.50;1971.20
55701;DHT22;41604;43.142;20.512;2022-07-23T02:23:58;563.40;1971.20
55701;DHT22;41604;43.142;20.512;2022-07-23T02:26:24;563.30;1996.80
55701;DHT22;41604;43.142;20.512;2022-07-23T02:28:50;563.50;1996.80
55701;DHT22;41604;43.142;20.512;2022-07-23T02:31:18;563.60;1971.20
55701;DHT22;41604;43.142;20.512;2022-07-23T02:33:44;563.60;1971.20
55701;DHT22;41604;43.142;20.512;2022-07-23T02:36:11;563.40;1996.80
55701;DHT22;41604;43.142;20.512;2022-07-23T02:38:37;563.50;1996.80
55701;DHT22;41604;43.142;20.512;2022-07-23T02:41:03;563.40;1996.80
55701;DHT22;41604;43.142;20.512;2022-07-23T02:43:29;563.60;1971.20
55701;DHT22;41604;43.142;20.512;2022-07-23T02:45:55;563.60;1971.20
55701;DHT22;41604;43.142;20.512;2022-07-23T02:48:22;563.70;1971.20
55701;DHT22;41604;43.142;20.512;2022-07-23T02:50:48;563.80;1971.20
55701;DHT22;41604;43.142;20.512;2022-07-23T02:53:14;563.80;1971.20
55701;DHT22;41604;43.142;20.512;2022-07-23T02:55:40;563.70;1971.20
55701;DHT22;41604;43.142;20.512;2022-07-23T02:58:06;563.60;1971.20
55701;DHT22;41604;43.142;20.512;2022-07-23T03:00:32;563.40;1971.20
55701;DHT22;41604;43.142;20.512;2022-07-23T03:02:58;563.20;1996.80
55701;DHT22;41604;43.142;20.512;2022-07-23T03:05:24;538.50;1971.20
55701;DHT22;41604;43.142;20.512;2022-07-23T03:07:50;538.40;1971.20
55701;DHT22;41604;43.142;20.512;2022-07-23T03:10:16;538.30;1996.80
55701;DHT22;41604;43.142;20.512;2022-07-23T03:12:42;538.40;1996.80
55701;DHT22;41604;43.142;20.512;2022-07-23T03:15:09;538.30;1996.80
55701;DHT22;41604;43.142;20.512;2022-07-23T03:17:35;538.00;2022.40
55701;DHT22;41604;43.142;20.512;2022-07-23T03:20:01;537.90;2022.40
55701;DHT22;41604;43.142;20.512;2022-07-23T03:22:27;537.80;2022.40
55701;DHT22;41604;43.142;20.512;2022-07-23T03:24:53;537.80;2048.00
55701;DHT22;41604;43.142;20.512;2022-07-23T03:27:26;537.90;2048.00
55701;DHT22;41604;43.142;20.512;2022-07-23T03:29:54;538.00;2022.40
55701;DHT22;41604;43.142;20.512;2022-07-23T03:32:21;538.10;1996.80
55701;DHT22;41604;43.142;20.512;2022-07-23T03:34:47;538.20;1996.80
55701;DHT22;41604;43.142;20.512;2022-07-23T03:37:14;538.00;1996.80
55701;DHT22;41604;43.142;20.512;2022-07-23T03:39:40;538.20;1996.80
55701;DHT22;41604;43.142;20.512;2022-07-23T03:42:06;538.30;1996.80
55701;DHT22;41604;43.142;20.512;2022-07-23T03:44:32;538.40;1996.80
55701;DHT22;41604;43.142;20.512;2022-07-23T03:46:58;538.50;1996.80
55701;DHT22;41604;43.142;20.512;2022-07-23T03:49:25;563.30;2022.40
55701;DHT22;41604;43.142;20.512;2022-07-23T03:51:51;563.30;2022.40
55701;DHT22;41604;43.142;20.512;2022-07-23T03:54:17;563.30;1996.80
55701;DHT22;41604;43.142;20.512;2022-07-23T03:56:43;563.50;2022.40
55701;DHT22;41604;43.142;20.512;2022-07-23T03:59:10;563.50;1996.80
55701;DHT22;41604;43.142;20.512;2022-07-23T04:01:36;563.60;1996.80
55701;DHT22;41604;43.142;20.512;2022-07-23T04:04:03;563.60;1996.80
55701;DHT22;41604;43.142;20.512;2022-07-23T04:06:29;563.60;1996.80
55701;DHT22;41604;43.142;20.512;2022-07-23T04:08:55;563.70;1971.20
55701;DHT22;41604;43.142;20.512;2022-07-23T04:11:21;563.80;1971.20
55701;DHT22;41604;43.142;20.512;2022-07-23T04:13:47;563.80;1971.20
55701;DHT22;41604;43.142;20.512;2022-07-23T04:16:13;563.90;1971.20
55701;DHT22;41604;43.142;20.512;2022-07-23T04:18:39;564.00;1971.20
55701;DHT22;41604;43.142;20.512;2022-07-23T04:21:06;564.10;1971.20
55701;DHT22;41604;43.142;20.512;2022-07-23T04:23:32;564.10;1945.60
55701;DHT22;41604;43.142;20.512;2022-07-23T04:25:58;588.80;1945.60
55701;DHT22;41604;43.142;20.512;2022-07-23T04:28:24;588.90;1945.60
55701;DHT22;41604;43.142;20.512;2022-07-23T04:30:50;588.90;1945.60
55701;DHT22;41604;43.142;20.512;2022-07-23T04:33:16;589.00;1945.60
55701;DHT22;41604;43.142;20.512;2022-07-23T04:35:42;589.10;1920.00
55701;DHT22;41604;43.142;20.512;2022-07-23T04:38:08;589.20;1920.00
55701;DHT22;41604;43.142;20.512;2022-07-23T04:40:34;589.20;1920.00
55701;DHT22;41604;43.142;20.512;2022-07-23T04:43:01;589.30;1920.00
55701;DHT22;41604;43.142;20.512;2022-07-23T04:45:26;589.30;1920.00
55701;DHT22;41604;43.142;20.512;2022-07-23T04:47:52;589.40;1894.40
55701;DHT22;41604;43.142;20.512;2022-07-23T04:50:18;589.50;1894.40
55701;DHT22;41604;43.142;20.512;2022-07-23T04:52:48;589.50;1894.40
55701;DHT22;41604;43.142;20.512;2022-07-23T04:55:14;589.40;1894.40
55701;DHT22;41604;43.142;20.512;2022-07-23T04:57:40;589.30;1920.00
55701;DHT22;41604;43.142;20.512;2022-07-23T05:00:07;589.40;1920.00
55701;DHT22;41604;43.142;20.512;2022-07-23T05:02:34;589.60;1894.40
55701;DHT22;41604;43.142;20.512;2022-07-23T05:05:00;589.60;1894.40
55701;DHT22;41604;43.142;20.512;2022-07-23T05:07:26;589.60;1868.80
55701;DHT22;41604;43.142;20.512;2022-07-23T05:09:52;589.70;1868.80
55701;DHT22;41604;43.142;20.512;2022-07-23T05:12:18;589.70;1868.80
